mardi 25 mars 2014

ALERTE SPOTTING 25/03/14

RAS
Manque les prévisions/immats UX / DY / BE / certains IB / AZ / TP / BA / AH
*** Heures en Local Time **
Prévisions matinales soumises à modifications de dernières minute. Voir le log du mois pour la version 'définitive' de la journée: http://www.airkalo.com/ORLYAVIATION/Logdumois.html

le TAF de la journée:


METAR: LFPO 250400Z 24004KT 9999 -RA SCT033 BKN050 06/02 Q1009 NOSIG=
TAF LONG: LFPO 242300Z 2500/2606 14004KT CAVOK BECMG 2502/2504 BKN015
PROB40 TEMPO 2504/2513 4000 RA BKN008 BECMG 2518/2520 BKN030 BECMG
2522/2524 36005KT CAVOK=